sensor_id;sensor_type;location;lat;lon;timestamp;temperature;humidity
60701;DHT22;46541;49.894;10.886;2023-02-25T00:01:16;5.80;99.90
60701;DHT22;46541;49.894;10.886;2023-02-25T00:03:42;5.80;99.90
60701;DHT22;46541;49.894;10.886;2023-02-25T00:06:11;5.80;99.90
60701;DHT22;46541;49.894;10.886;2023-02-25T00:08:42;5.70;99.90
60701;DHT22;46541;49.894;10.886;2023-02-25T00:11:11;5.70;99.90
60701;DHT22;46541;49.894;10.886;2023-02-25T00:13:39;5.60;99.90
60701;DHT22;46541;49.894;10.886;2023-02-25T00:16:08;5.60;99.90
60701;DHT22;46541;49.894;10.886;2023-02-25T00:18:35;5.60;99.90
60701;DHT22;46541;49.894;10.886;2023-02-25T00:21:06;5.50;99.90
60701;DHT22;46541;49.894;10.886;2023-02-25T00:23:33;5.50;99.90
60701;DHT22;46541;49.894;10.886;2023-02-25T00:26:02;5.50;99.90
60701;DHT22;46541;49.894;10.886;2023-02-25T00:28:29;5.50;99.90
60701;DHT22;46541;49.894;10.886;2023-02-25T00:30:56;5.40;99.90
60701;DHT22;46541;49.894;10.886;2023-02-25T00:33:22;5.50;99.90
60701;DHT22;46541;49.894;10.886;2023-02-25T00:35:50;5.50;99.90
60701;DHT22;46541;49.894;10.886;2023-02-25T00:38:17;5.50;99.90
60701;DHT22;46541;49.894;10.886;2023-02-25T00:40:43;5.40;99.90
60701;DHT22;46541;49.894;10.886;2023-02-25T00:43:10;5.40;99.90
60701;DHT22;46541;49.894;10.886;2023-02-25T00:45:38;5.40;99.90
60701;DHT22;46541;49.894;10.886;2023-02-25T00:48:06;5.40;99.90
60701;DHT22;46541;49.894;10.886;2023-02-25T00:50:34;5.40;99.90
60701;DHT22;46541;49.894;10.886;2023-02-25T00:53:01;5.50;99.90
60701;DHT22;46541;49.894;10.886;2023-02-25T00:55:28;5.50;99.90
60701;DHT22;46541;49.894;10.886;2023-02-25T00:58:02;5.50;99.90
60701;DHT22;46541;49.894;10.886;2023-02-25T01:00:29;5.60;99.90
60701;DHT22;46541;49.894;10.886;2023-02-25T01:03:03;5.60;99.90
60701;DHT22;46541;49.894;10.886;2023-02-25T01:05:30;5.60;99.90
60701;DHT22;46541;49.894;10.886;2023-02-25T01:07:57;5.70;99.90
60701;DHT22;46541;49.894;10.886;2023-02-25T01:10:23;5.80;99.90
60701;DHT22;46541;49.894;10.886;2023-02-25T01:12:50;5.70;99.90
60701;DHT22;46541;49.894;10.886;2023-02-25T01:15:17;5.70;99.90
60701;DHT22;46541;49.894;10.886;2023-02-25T01:17:43;5.80;99.90
60701;DHT22;46541;49.894;10.886;2023-02-25T01:20:10;5.70;99.90
60701;DHT22;46541;49.894;10.886;2023-02-25T01:22:39;5.80;99.90
60701;DHT22;46541;49.894;10.886;2023-02-25T01:25:11;5.80;99.90
60701;DHT22;46541;49.894;10.886;2023-02-25T01:27:39;5.80;99.90
60701;DHT22;46541;49.894;10.886;2023-02-25T01:30:06;5.80;99.90
60701;DHT22;46541;49.894;10.886;2023-02-25T01:32:34;5.70;99.90
60701;DHT22;46541;49.894;10.886;2023-02-25T01:35:01;5.80;99.90
60701;DHT22;46541;49.894;10.886;2023-02-25T01:37:28;5.70;99.90
60701;DHT22;46541;49.894;10.886;2023-02-25T01:39:54;5.70;99.90
60701;DHT22;46541;49.894;10.886;2023-02-25T01:42:21;5.70;99.90
60701;DHT22;46541;49.894;10.886;2023-02-25T01:47:46;5.60;99.90
60701;DHT22;46541;49.894;10.886;2023-02-25T01:50:18;5.70;99.90
60701;DHT22;46541;49.894;10.886;2023-02-25T01:52:45;5.70;99.90
60701;DHT22;46541;49.894;10.886;2023-02-25T01:55:12;5.70;99.90
60701;DHT22;46541;49.894;10.886;2023-02-25T01:57:39;5.70;99.90
60701;DHT22;46541;49.894;10.886;2023-02-25T02:00:07;5.60;99.90
60701;DHT22;46541;49.894;10.886;2023-02-25T02:02:37;5.60;99.90
60701;DHT22;46541;49.894;10.886;2023-02-25T02:05:05;5.70;99.90
60701;DHT22;46541;49.894;10.886;2023-02-25T02:07:32;5.70;99.90
60701;DHT22;46541;49.894;10.886;2023-02-25T02:10:00;5.60;99.90
60701;DHT22;46541;49.894;10.886;2023-02-25T02:12:32;5.70;99.90
60701;DHT22;46541;49.894;10.886;2023-02-25T02:15:03;5.70;99.90
60701;DHT22;46541;49.894;10.886;2023-02-25T02:17:58;5.70;99.90
60701;DHT22;46541;49.894;10.886;2023-02-25T02:20:32;5.70;99.90
60701;DHT22;46541;49.894;10.886;2023-02-25T02:31:55;5.60;99.90
60701;DHT22;46541;49.894;10.886;2023-02-25T02:34:38;5.60;99.90
60701;DHT22;46541;49.894;10.886;2023-02-25T02:40:06;5.70;99.90
60701;DHT22;46541;49.894;10.886;2023-02-25T02:48:02;5.60;99.90
60701;DHT22;46541;49.894;10.886;2023-02-25T02:50:39;5.60;99.90
60701;DHT22;46541;49.894;10.886;2023-02-25T02:53:16;5.60;99.90
60701;DHT22;46541;49.894;10.886;2023-02-25T02:55:46;5.60;99.90
60701;DHT22;46541;49.894;10.886;2023-02-25T03:00:54;5.50;99.90
60701;DHT22;46541;49.894;10.886;2023-02-25T03:03:35;5.50;99.90
60701;DHT22;46541;49.894;10.886;2023-02-25T03:06:07;5.50;99.90
60701;DHT22;46541;49.894;10.886;2023-02-25T03:08:43;5.50;99.90
60701;DHT22;46541;49.894;10.886;2023-02-25T03:11:12;5.50;99.90
60701;DHT22;46541;49.894;10.886;2023-02-25T03:13:39;5.50;99.90
60701;DHT22;46541;49.894;10.886;2023-02-25T03:16:09;5.50;99.90
60701;DHT22;46541;49.894;10.886;2023-02-25T03:18:44;5.50;99.90
60701;DHT22;46541;49.894;10.886;2023-02-25T03:21:18;5.40;99.90
60701;DHT22;46541;49.894;10.886;2023-02-25T03:23:46;5.50;99.90
60701;DHT22;46541;49.894;10.886;2023-02-25T03:26:22;5.40;99.90
60701;DHT22;46541;49.894;10.886;2023-02-25T03:28:52;5.40;99.90
60701;DHT22;46541;49.894;10.886;2023-02-25T03:31:23;5.40;99.90
60701;DHT22;46541;49.894;10.886;2023-02-25T03:34:06;5.40;99.90
60701;DHT22;46541;49.894;10.886;2023-02-25T03:36:38;5.40;99.90
60701;DHT22;46541;49.894;10.886;2023-02-25T03:39:27;5.40;99.90
60701;DHT22;46541;49.894;10.886;2023-02-25T03:41:57;5.40;99.90
60701;DHT22;46541;49.894;10.886;2023-02-25T03:44:34;5.30;99.90
60701;DHT22;46541;49.894;10.886;2023-02-25T03:47:03;5.30;99.90
60701;DHT22;46541;49.894;10.886;2023-02-25T03:49:37;5.30;99.90
60701;DHT22;46541;49.894;10.886;2023-02-25T03:52:14;5.30;99.90
60701;DHT22;46541;49.894;10.886;2023-02-25T03:54:42;5.30;99.90
60701;DHT22;46541;49.894;10.886;2023-02-25T03:57:09;5.30;99.90
60701;DHT22;46541;49.894;10.886;2023-02-25T03:59:35;5.30;99.90
60701;DHT22;46541;49.894;10.886;2023-02-25T04:02:03;5.40;99.90
60701;DHT22;46541;49.894;10.886;2023-02-25T04:04:30;5.40;99.90
60701;DHT22;46541;49.894;10.886;2023-02-25T04:06:56;5.40;99.90
60701;DHT22;46541;49.894;10.886;2023-02-25T04:09:23;5.40;99.90
60701;DHT22;46541;49.894;10.886;2023-02-25T04:11:50;5.40;99.90
60701;DHT22;46541;49.894;10.886;2023-02-25T04:14:19;5.40;99.90
60701;DHT22;46541;49.894;10.886;2023-02-25T04:16:46;5.40;99.90
60701;DHT22;46541;49.894;10.886;2023-02-25T04:19:13;5.40;99.90
60701;DHT22;46541;49.894;10.886;2023-02-25T04:21:39;5.40;99.90
60701;DHT22;46541;49.894;10.886;2023-02-25T04:24:06;5.50;99.90
60701;DHT22;46541;49.894;10.886;2023-02-25T04:26:34;5.50;99.90
60701;DHT22;46541;49.894;10.886;2023-02-25T04:29:02;5.50;99.90
60701;DHT22;46541;49.894;10.886;2023-02-25T04:31:29;5.50;99.90
60701;DHT22;46541;49.894;10.886;2023-02-25T04:33:56;5.50;99.90
60701;DHT22;46541;49.894;10.886;2023-02-25T04:36:29;5.50;99.90
60701;DHT22;46541;49.894;10.886;2023-02-25T04:38:57;5.60;99.90
60701;DHT22;46541;49.894;10.886;2023-02-25T04:41:32;5.60;99.90
60701;DHT22;46541;49.894;10.886;2023-02-25T04:43:59;5.60;99.90
60701;DHT22;46541;49.894;10.886;2023-02-25T04:46:27;5.60;99.90
60701;DHT22;46541;49.894;10.886;2023-02-25T04:48:54;5.60;99.90
60701;DHT22;46541;49.894;10.886;2023-02-25T04:51:21;5.60;99.90
60701;DHT22;46541;49.894;10.886;2023-02-25T04:53:48;5.60;99.90
60701;DHT22;46541;49.894;10.886;2023-02-25T04:56:15;5.50;99.90
60701;DHT22;46541;49.894;10.886;2023-02-25T04:58:41;5.40;99.90
60701;DHT22;46541;49.894;10.886;2023-02-25T05:01:09;5.40;99.90
60701;DHT22;46541;49.894;10.886;2023-02-25T05:03:36;5.40;99.90
60701;DHT22;46541;49.894;10.886;2023-02-25T05:06:04;5.40;99.90
60701;DHT22;46541;49.894;10.886;2023-02-25T05:08:32;5.40;99.90
60701;DHT22;46541;49.894;10.886;2023-02-25T05:10:59;5.40;99.90
60701;DHT22;46541;49.894;10.886;2023-02-25T05:13:27;5.40;99.90
60701;DHT22;46541;49.894;10.886;2023-02-25T05:16:24;5.40;99.90
60701;DHT22;46541;49.894;10.886;2023-02-25T05:18:52;5.40;99.90
60701;DHT22;46541;49.894;10.886;2023-02-25T05:21:21;5.30;99.90
60701;DHT22;46541;49.894;10.886;2023-02-25T05:23:50;5.30;99.90
60701;DHT22;46541;49.894;10.886;2023-02-25T05:26:18;5.30;99.90
60701;DHT22;46541;49.894;10.886;2023-02-25T05:28:53;5.30;99.90
60701;DHT22;46541;49.894;10.886;2023-02-25T05:31:21;5.20;99.90
60701;DHT22;46541;49.894;10.886;2023-02-25T05:33:48;5.30;99.90
60701;DHT22;46541;49.894;10.886;2023-02-25T05:36:16;5.30;99.90
60701;DHT22;46541;49.894;10.886;2023-02-25T05:38:43;5.40;99.90
60701;DHT22;46541;49.894;10.886;2023-02-25T05:41:11;5.40;99.90
60701;DHT22;46541;49.894;10.886;2023-02-25T05:43:39;5.40;99.90
60701;DHT22;46541;49.894;10.886;2023-02-25T05:46:07;5.40;99.90
60701;DHT22;46541;49.894;10.886;2023-02-25T05:48:38;5.40;99.90
60701;DHT22;46541;49.894;10.886;2023-02-25T05:51:11;5.40;99.90
60701;DHT22;46541;49.894;10.886;2023-02-25T05:53:38;5.40;99.90
60701;DHT22;46541;49.894;10.886;2023-02-25T05:56:06;5.40;99.90
60701;DHT22;46541;49.894;10.886;2023-02-25T05:58:34;5.40;99.90
60701;DHT22;46541;49.894;10.886;2023-02-25T06:01:10;5.40;99.90
60701;DHT22;46541;49.894;10.886;2023-02-25T06:03:40;5.40;99.90
60701;DHT22;46541;49.894;10.886;2023-02-25T06:06:07;5.40;99.90
60701;DHT22;46541;49.894;10.886;2023-02-25T06:08:34;5.50;99.90
60701;DHT22;46541;49.894;10.886;2023-02-25T06:11:01;5.50;99.90
60701;DHT22;46541;49.894;10.886;2023-02-25T06:13:30;5.40;99.90
60701;DHT22;46541;49.894;10.886;2023-02-25T06:15:57;5.40;99.90
60701;DHT22;46541;49.894;10.886;2023-02-25T06:18:24;5.40;99.90
60701;DHT22;46541;49.894;10.886;2023-02-25T06:20:50;5.40;99.90
60701;DHT22;46541;49.894;10.886;2023-02-25T06:23:18;5.40;99.90
60701;DHT22;46541;49.894;10.886;2023-02-25T06:25:45;5.40;99.90
60701;DHT22;46541;49.894;10.886;2023-02-25T06:28:11;5.30;99.90
60701;DHT22;46541;49.894;10.886;2023-02-25T06:30:40;5.30;99.90
60701;DHT22;46541;49.894;10.886;2023-02-25T06:33:07;5.30;99.90
60701;DHT22;46541;49.894;10.886;2023-02-25T06:35:34;5.30;99.90
60701;DHT22;46541;49.894;10.886;2023-02-25T06:38:01;5.30;99.90
60701;DHT22;46541;49.894;10.886;2023-02-25T06:40:28;5.40;99.90
60701;DHT22;46541;49.894;10.886;2023-02-25T06:42:55;5.40;99.90
60701;DHT22;46541;49.894;10.886;2023-02-25T06:45:21;5.40;99.90
60701;DHT22;46541;49.894;10.886;2023-02-25T06:47:49;5.40;99.90
60701;DHT22;46541;49.894;10.886;2023-02-25T06:50:16;5.30;99.90
60701;DHT22;46541;49.894;10.886;2023-02-25T06:52:43;5.20;99.90
60701;DHT22;46541;49.894;10.886;2023-02-25T06:55:09;5.20;99.90
60701;DHT22;46541;49.894;10.886;2023-02-25T06:57:36;5.20;99.90
60701;DHT22;46541;49.894;10.886;2023-02-25T07:00:04;5.10;99.90
60701;DHT22;46541;49.894;10.886;2023-02-25T07:02:31;5.20;99.90
60701;DHT22;46541;49.894;10.886;2023-02-25T07:04:58;5.20;99.90
60701;DHT22;46541;49.894;10.886;2023-02-25T07:07:26;5.30;99.90
60701;DHT22;46541;49.894;10.886;2023-02-25T07:09:53;5.30;99.90
60701;DHT22;46541;49.894;10.886;2023-02-25T07:12:20;5.40;99.90
60701;DHT22;46541;49.894;10.886;2023-02-25T07:14:46;5.40;99.90
60701;DHT22;46541;49.894;10.886;2023-02-25T07:17:13;5.40;99.90
60701;DHT22;46541;49.894;10.886;2023-02-25T07:19:40;5.50;99.90
60701;DHT22;46541;49.894;10.886;2023-02-25T07:22:07;5.50;99.90
60701;DHT22;46541;49.894;10.886;2023-02-25T07:24:35;5.40;99.90
60701;DHT22;46541;49.894;10.886;2023-02-25T07:27:02;5.40;99.90
60701;DHT22;46541;49.894;10.886;2023-02-25T07:29:28;5.40;99.90
60701;DHT22;46541;49.894;10.886;2023-02-25T07:31:55;5.40;99.90
60701;DHT22;46541;49.894;10.886;2023-02-25T07:34:22;5.40;99.90
60701;DHT22;46541;49.894;10.886;2023-02-25T07:36:49;5.50;99.90
60701;DHT22;46541;49.894;10.886;2023-02-25T07:39:16;5.60;99.90
60701;DHT22;46541;49.894;10.886;2023-02-25T07:41:42;5.60;99.90
60701;DHT22;46541;49.894;10.886;2023-02-25T07:44:09;5.60;99.90
60701;DHT22;46541;49.894;10.886;2023-02-25T07:46:36;5.60;99.90
60701;DHT22;46541;49.894;10.886;2023-02-25T07:49:04;5.60;99.90
60701;DHT22;46541;49.894;10.886;2023-02-25T07:51:31;5.60;99.90
60701;DHT22;46541;49.894;10.886;2023-02-25T07:53:58;5.60;99.90
60701;DHT22;46541;49.894;10.886;2023-02-25T07:56:27;5.60;99.90
60701;DHT22;46541;49.894;10.886;2023-02-25T07:58:54;5.70;99.90
60701;DHT22;46541;49.894;10.886;2023-02-25T08:01:26;5.80;99.90
60701;DHT22;46541;49.894;10.886;2023-02-25T08:03:57;5.80;99.90
60701;DHT22;46541;49.894;10.886;2023-02-25T08:06:26;5.90;99.90
60701;DHT22;46541;49.894;10.886;2023-02-25T08:08:53;5.90;99.90
60701;DHT22;46541;49.894;10.886;2023-02-25T08:11:22;5.90;99.90
60701;DHT22;46541;49.894;10.886;2023-02-25T08:13:50;5.90;99.90
60701;DHT22;46541;49.894;10.886;2023-02-25T08:16:19;6.00;99.90
60701;DHT22;46541;49.894;10.886;2023-02-25T08:18:47;6.10;99.90
60701;DHT22;46541;49.894;10.886;2023-02-25T08:21:16;6.20;99.90
60701;DHT22;46541;49.894;10.886;2023-02-25T08:23:51;6.30;99.90
60701;DHT22;46541;49.894;10.886;2023-02-25T08:26:18;6.20;99.90
60701;DHT22;46541;49.894;10.886;2023-02-25T08:28:48;6.20;99.90
60701;DHT22;46541;49.894;10.886;2023-02-25T08:31:15;6.30;99.90
60701;DHT22;46541;49.894;10.886;2023-02-25T08:33:45;6.40;99.90
60701;DHT22;46541;49.894;10.886;2023-02-25T08:36:21;6.40;99.90
60701;DHT22;46541;49.894;10.886;2023-02-25T08:38:49;6.40;99.90
60701;DHT22;46541;49.894;10.886;2023-02-25T08:41:18;6.50;99.90
60701;DHT22;46541;49.894;10.886;2023-02-25T08:43:48;6.60;99.90
60701;DHT22;46541;49.894;10.886;2023-02-25T08:46:15;6.70;99.90
60701;DHT22;46541;49.894;10.886;2023-02-25T08:48:43;6.70;99.90
60701;DHT22;46541;49.894;10.886;2023-02-25T08:51:09;6.80;99.90
60701;DHT22;46541;49.894;10.886;2023-02-25T08:53:38;6.80;99.90
60701;DHT22;46541;49.894;10.886;2023-02-25T08:56:10;6.80;99.90
60701;DHT22;46541;49.894;10.886;2023-02-25T08:58:38;6.90;99.90
60701;DHT22;46541;49.894;10.886;2023-02-25T09:01:13;6.80;99.90
60701;DHT22;46541;49.894;10.886;2023-02-25T09:03:43;6.80;99.90
60701;DHT22;46541;49.894;10.886;2023-02-25T09:06:21;6.80;99.90
60701;DHT22;46541;49.894;10.886;2023-02-25T09:08:49;6.70;99.90
60701;DHT22;46541;49.894;10.886;2023-02-25T09:11:17;6.80;99.90
60701;DHT22;46541;49.894;10.886;2023-02-25T09:13:44;6.90;99.90
60701;DHT22;46541;49.894;10.886;2023-02-25T09:16:11;7.00;99.90
60701;DHT22;46541;49.894;10.886;2023-02-25T09:18:44;7.00;99.90
60701;DHT22;46541;49.894;10.886;2023-02-25T09:21:12;7.00;99.90
60701;DHT22;46541;49.894;10.886;2023-02-25T09:23:39;6.90;99.90
60701;DHT22;46541;49.894;10.886;2023-02-25T09:26:06;6.90;99.90
60701;DHT22;46541;49.894;10.886;2023-02-25T09:28:34;6.90;99.90
60701;DHT22;46541;49.894;10.886;2023-02-25T09:31:01;6.90;99.90
60701;DHT22;46541;49.894;10.886;2023-02-25T09:33:30;6.90;99.90
60701;DHT22;46541;49.894;10.886;2023-02-25T09:36:09;7.00;99.90
60701;DHT22;46541;49.894;10.886;2023-02-25T09:38:37;7.10;99.90
60701;DHT22;46541;49.894;10.886;2023-02-25T09:41:34;7.20;99.90
60701;DHT22;46541;49.894;10.886;2023-02-25T09:44:14;7.30;99.90
60701;DHT22;46541;49.894;10.886;2023-02-25T09:50:04;7.50;99.90
60701;DHT22;46541;49.894;10.886;2023-02-25T09:52:35;7.60;99.90
60701;DHT22;46541;49.894;10.886;2023-02-25T09:55:30;7.60;99.90
60701;DHT22;46541;49.894;10.886;2023-02-25T10:00:46;7.60;99.90
60701;DHT22;46541;49.894;10.886;2023-02-25T10:03:49;7.60;99.90
60701;DHT22;46541;49.894;10.886;2023-02-25T10:28:48;7.60;99.90
60701;DHT22;46541;49.894;10.886;2023-02-25T10:31:20;7.50;99.90
60701;DHT22;46541;49.894;10.886;2023-02-25T10:33:49;7.50;99.90
60701;DHT22;46541;49.894;10.886;2023-02-25T10:38:47;6.90;99.90
60701;DHT22;46541;49.894;10.886;2023-02-25T10:41:15;6.80;99.90
60701;DHT22;46541;49.894;10.886;2023-02-25T10:43:43;6.60;99.90
60701;DHT22;46541;49.894;10.886;2023-02-25T10:46:37;6.70;99.90
60701;DHT22;46541;49.894;10.886;2023-02-25T10:49:33;6.90;99.90
60701;DHT22;46541;49.894;10.886;2023-02-25T10:52:14;7.10;99.90
60701;DHT22;46541;49.894;10.886;2023-02-25T10:54:50;7.20;99.90
60701;DHT22;46541;49.894;10.886;2023-02-25T10:57:23;7.20;99.90
60701;DHT22;46541;49.894;10.886;2023-02-25T11:00:27;7.00;99.90
60701;DHT22;46541;49.894;10.886;2023-02-25T11:02:56;7.10;99.90
60701;DHT22;46541;49.894;10.886;2023-02-25T11:05:40;7.20;99.90
60701;DHT22;46541;49.894;10.886;2023-02-25T11:08:35;7.30;99.90
60701;DHT22;46541;49.894;10.886;2023-02-25T11:11:21;7.10;99.90
60701;DHT22;46541;49.894;10.886;2023-02-25T11:13:53;7.00;99.90
60701;DHT22;46541;49.894;10.886;2023-02-25T11:16:20;6.90;99.90
60701;DHT22;46541;49.894;10.886;2023-02-25T11:18:55;7.00;99.90
60701;DHT22;46541;49.894;10.886;2023-02-25T11:21:32;7.10;99.90
60701;DHT22;46541;49.894;10.886;2023-02-25T11:24:09;7.20;99.90
60701;DHT22;46541;49.894;10.886;2023-02-25T11:26:36;7.20;99.90
60701;DHT22;46541;49.894;10.886;2023-02-25T11:31:47;6.90;99.90
60701;DHT22;46541;49.894;10.886;2023-02-25T11:34:26;6.90;99.90
60701;DHT22;46541;49.894;10.886;2023-02-25T11:36:53;7.00;99.90
60701;DHT22;46541;49.894;10.886;2023-02-25T11:39:24;6.90;99.90
60701;DHT22;46541;49.894;10.886;2023-02-25T11:41:54;7.00;99.90
60701;DHT22;46541;49.894;10.886;2023-02-25T11:44:28;7.10;99.90
60701;DHT22;46541;49.894;10.886;2023-02-25T11:46:57;7.40;99.90
60701;DHT22;46541;49.894;10.886;2023-02-25T11:58:28;7.30;99.90
60701;DHT22;46541;49.894;10.886;2023-02-25T12:01:28;7.30;99.90
60701;DHT22;46541;49.894;10.886;2023-02-25T12:04:21;7.50;99.90
60701;DHT22;46541;49.894;10.886;2023-02-25T12:07:12;7.60;99.90
60701;DHT22;46541;49.894;10.886;2023-02-25T12:26:45;5.70;99.90
60701;DHT22;46541;49.894;10.886;2023-02-25T12:43:43;6.70;99.90
60701;DHT22;46541;49.894;10.886;2023-02-25T12:57:07;7.30;99.90
60701;DHT22;46541;49.894;10.886;2023-02-25T12:59:51;7.30;99.90
60701;DHT22;46541;49.894;10.886;2023-02-25T13:14:02;7.90;99.90
60701;DHT22;46541;49.894;10.886;2023-02-25T13:16:40;7.80;99.90
60701;DHT22;46541;49.894;10.886;2023-02-25T13:19:17;7.50;99.90
60701;DHT22;46541;49.894;10.886;2023-02-25T13:24:50;7.20;99.90
60701;DHT22;46541;49.894;10.886;2023-02-25T13:52:42;7.30;99.90
60701;DHT22;46541;49.894;10.886;2023-02-25T13:55:36;7.10;99.90
60701;DHT22;46541;49.894;10.886;2023-02-25T14:07:12;7.00;99.90
60701;DHT22;46541;49.894;10.886;2023-02-25T14:12:41;7.00;99.90
60701;DHT22;46541;49.894;10.886;2023-02-25T14:15:36;7.20;99.90
60701;DHT22;46541;49.894;10.886;2023-02-25T14:18:22;7.20;99.90
60701;DHT22;46541;49.894;10.886;2023-02-25T14:26:33;7.30;99.90
60701;DHT22;46541;49.894;10.886;2023-02-25T14:35:27;7.50;99.90
60701;DHT22;46541;49.894;10.886;2023-02-25T14:38:13;7.50;99.90
60701;DHT22;46541;49.894;10.886;2023-02-25T14:40:55;7.50;99.90
60701;DHT22;46541;49.894;10.886;2023-02-25T15:13:19;6.80;99.90
60701;DHT22;46541;49.894;10.886;2023-02-25T15:18:56;6.50;99.90
60701;DHT22;46541;49.894;10.886;2023-02-25T15:21:40;6.40;99.90
60701;DHT22;46541;49.894;10.886;2023-02-25T15:24:37;6.30;99.90
60701;DHT22;46541;49.894;10.886;2023-02-25T15:29:59;6.10;99.90
60701;DHT22;46541;49.894;10.886;2023-02-25T15:32:29;6.10;99.90
60701;DHT22;46541;49.894;10.886;2023-02-25T15:35:14;6.10;99.90
60701;DHT22;46541;49.894;10.886;2023-02-25T15:42:50;6.20;99.90
60701;DHT22;46541;49.894;10.886;2023-02-25T15:53:34;6.00;99.90
60701;DHT22;46541;49.894;10.886;2023-02-25T16:08:50;6.00;99.90
60701;DHT22;46541;49.894;10.886;2023-02-25T16:11:41;6.00;99.90
60701;DHT22;46541;49.894;10.886;2023-02-25T16:14:26;6.00;99.90
60701;DHT22;46541;49.894;10.886;2023-02-25T16:16:59;6.00;99.90
60701;DHT22;46541;49.894;10.886;2023-02-25T16:19:30;6.00;99.90
60701;DHT22;46541;49.894;10.886;2023-02-25T16:22:13;5.90;99.90
60701;DHT22;46541;49.894;10.886;2023-02-25T16:24:47;5.90;99.90
60701;DHT22;46541;49.894;10.886;2023-02-25T16:30:06;5.70;99.90
60701;DHT22;46541;49.894;10.886;2023-02-25T16:32:46;5.70;99.90
60701;DHT22;46541;49.894;10.886;2023-02-25T16:35:25;5.70;99.90
60701;DHT22;46541;49.894;10.886;2023-02-25T16:38:13;5.60;99.90
60701;DHT22;46541;49.894;10.886;2023-02-25T16:40:43;5.60;99.90
60701;DHT22;46541;49.894;10.886;2023-02-25T16:43:13;5.60;99.90
60701;DHT22;46541;49.894;10.886;2023-02-25T16:45:59;5.60;99.90
60701;DHT22;46541;49.894;10.886;2023-02-25T16:48:33;5.60;99.90
60701;DHT22;46541;49.894;10.886;2023-02-25T16:51:10;5.60;99.90
60701;DHT22;46541;49.894;10.886;2023-02-25T16:53:43;5.60;99.90
60701;DHT22;46541;49.894;10.886;2023-02-25T16:56:17;5.60;99.90
60701;DHT22;46541;49.894;10.886;2023-02-25T17:01:29;5.50;99.90
60701;DHT22;46541;49.894;10.886;2023-02-25T17:04:22;5.40;99.90
60701;DHT22;46541;49.894;10.886;2023-02-25T17:09:51;5.40;99.90
60701;DHT22;46541;49.894;10.886;2023-02-25T17:12:36;5.40;99.90
60701;DHT22;46541;49.894;10.886;2023-02-25T17:15:22;5.40;99.90
60701;DHT22;46541;49.894;10.886;2023-02-25T17:18:09;5.40;99.90
60701;DHT22;46541;49.894;10.886;2023-02-25T17:20:37;5.30;99.90
60701;DHT22;46541;49.894;10.886;2023-02-25T17:23:07;5.30;99.90
60701;DHT22;46541;49.894;10.886;2023-02-25T17:25:38;5.30;99.90
60701;DHT22;46541;49.894;10.886;2023-02-25T17:28:07;5.20;99.90
60701;DHT22;46541;49.894;10.886;2023-02-25T17:30:43;5.20;99.90
60701;DHT22;46541;49.894;10.886;2023-02-25T17:33:25;5.30;99.90
60701;DHT22;46541;49.894;10.886;2023-02-25T17:35:57;5.30;99.90
60701;DHT22;46541;49.894;10.886;2023-02-25T17:38:25;5.20;99.90
60701;DHT22;46541;49.894;10.886;2023-02-25T17:40:54;5.20;99.90
60701;DHT22;46541;49.894;10.886;2023-02-25T17:43:24;5.20;99.90
60701;DHT22;46541;49.894;10.886;2023-02-25T17:48:23;5.20;99.90
60701;DHT22;46541;49.894;10.886;2023-02-25T17:50:52;5.20;99.90
60701;DHT22;46541;49.894;10.886;2023-02-25T17:53:44;5.20;99.90
60701;DHT22;46541;49.894;10.886;2023-02-25T17:56:27;5.10;99.90
60701;DHT22;46541;49.894;10.886;2023-02-25T17:59:04;5.10;99.90
60701;DHT22;46541;49.894;10.886;2023-02-25T18:01:47;5.00;99.90
60701;DHT22;46541;49.894;10.886;2023-02-25T18:09:45;4.80;99.90
60701;DHT22;46541;49.894;10.886;2023-02-25T18:12:27;4.80;99.90
60701;DHT22;46541;49.894;10.886;2023-02-25T18:15:14;4.60;99.90
60701;DHT22;46541;49.894;10.886;2023-02-25T18:17:47;4.50;99.90
60701;DHT22;46541;49.894;10.886;2023-02-25T18:22:54;4.40;99.90
60701;DHT22;46541;49.894;10.886;2023-02-25T18:25:39;4.40;99.90
60701;DHT22;46541;49.894;10.886;2023-02-25T18:28:14;4.40;99.90
60701;DHT22;46541;49.894;10.886;2023-02-25T18:30:41;4.40;99.90
60701;DHT22;46541;49.894;10.886;2023-02-25T18:33:08;4.40;99.90
60701;DHT22;46541;49.894;10.886;2023-02-25T18:35:39;4.30;99.90
60701;DHT22;46541;49.894;10.886;2023-02-25T18:38:14;4.30;99.90
60701;DHT22;46541;49.894;10.886;2023-02-25T18:40:42;4.40;99.90
60701;DHT22;46541;49.894;10.886;2023-02-25T18:43:17;4.40;99.90
60701;DHT22;46541;49.894;10.886;2023-02-25T18:45:44;4.30;99.90
60701;DHT22;46541;49.894;10.886;2023-02-25T18:48:12;4.30;99.90
60701;DHT22;46541;49.894;10.886;2023-02-25T18:50:39;4.30;99.90
60701;DHT22;46541;49.894;10.886;2023-02-25T18:53:14;4.30;99.90
60701;DHT22;46541;49.894;10.886;2023-02-25T18:55:42;4.20;99.90
60701;DHT22;46541;49.894;10.886;2023-02-25T18:58:14;4.20;99.90
60701;DHT22;46541;49.894;10.886;2023-02-25T19:00:42;4.20;99.90
60701;DHT22;46541;49.894;10.886;2023-02-25T19:03:14;4.20;99.90
60701;DHT22;46541;49.894;10.886;2023-02-25T19:05:42;4.10;99.90
60701;DHT22;46541;49.894;10.886;2023-02-25T19:08:14;4.10;99.90
60701;DHT22;46541;49.894;10.886;2023-02-25T19:10:42;4.20;99.90
60701;DHT22;46541;49.894;10.886;2023-02-25T19:13:28;4.20;99.90
60701;DHT22;46541;49.894;10.886;2023-02-25T19:15:55;4.10;99.90
60701;DHT22;46541;49.894;10.886;2023-02-25T19:18:22;4.10;99.90
60701;DHT22;46541;49.894;10.886;2023-02-25T19:20:49;4.10;99.90
60701;DHT22;46541;49.894;10.886;2023-02-25T19:23:16;4.10;99.90
60701;DHT22;46541;49.894;10.886;2023-02-25T19:25:44;4.10;99.90
60701;DHT22;46541;49.894;10.886;2023-02-25T19:28:12;4.10;99.90
60701;DHT22;46541;49.894;10.886;2023-02-25T19:30:41;4.10;99.90
60701;DHT22;46541;49.894;10.886;2023-02-25T19:33:09;4.10;99.90
60701;DHT22;46541;49.894;10.886;2023-02-25T19:35:39;4.10;99.90
60701;DHT22;46541;49.894;10.886;2023-02-25T19:38:07;4.00;99.90
60701;DHT22;46541;49.894;10.886;2023-02-25T19:40:35;4.00;99.90
60701;DHT22;46541;49.894;10.886;2023-02-25T19:43:03;3.90;99.90
60701;DHT22;46541;49.894;10.886;2023-02-25T19:45:31;3.90;99.90
60701;DHT22;46541;49.894;10.886;2023-02-25T19:47:58;3.90;99.90
60701;DHT22;46541;49.894;10.886;2023-02-25T19:50:26;3.90;99.90
60701;DHT22;46541;49.894;10.886;2023-02-25T19:52:53;3.90;99.90
60701;DHT22;46541;49.894;10.886;2023-02-25T19:55:20;3.90;99.90
60701;DHT22;46541;49.894;10.886;2023-02-25T19:57:47;3.80;99.90
60701;DHT22;46541;49.894;10.886;2023-02-25T20:00:24;3.80;99.90
60701;DHT22;46541;49.894;10.886;2023-02-25T20:02:52;3.80;99.90
60701;DHT22;46541;49.894;10.886;2023-02-25T20:05:20;3.80;99.90
60701;DHT22;46541;49.894;10.886;2023-02-25T20:07:47;3.70;99.90
60701;DHT22;46541;49.894;10.886;2023-02-25T20:10:14;3.70;99.90